Time;durP1;ratioP1;P1;durP2;ratioP2;P2;SDS_P1;SDS_P2;PMS_P1;PMS_P2;Temp;Humidity;BMP_temperature;BMP_pressure;BME280_temperature;BME280_humidity;BME280_pressure;Samples;Min_cycle;Max_cycle;Signal;HPM_P1;HPM_P2
2023/12/20 00:00:14;;;;;;;2.20;1.27;;;;;;;;;;5057496;28;20269;-75
2023/12/20 00:06:39;;;;;;;1.43;1.10;;;;;;;;;;5054522;28;20591;-77
2023/12/20 00:09:06;;;;;;;1.10;0.90;;;;;;;;;;5048667;28;20191;-77
2023/12/20 00:11:33;;;;;;;2.70;1.40;;;;;;;;;;5070620;28;20221;-76
2023/12/20 00:17:59;;;;;;;2.73;1.10;;;;;;;;;;5054933;28;20142;-77
2023/12/20 00:32:46;;;;;;;0.83;0.80;;;;;;;;;;5053609;28;20173;-77
2023/12/20 00:35:13;;;;;;;0.90;0.70;;;;;;;;;;5036985;28;20683;-78
2023/12/20 00:37:40;;;;;;;1.83;0.50;;;;;;;;;;5054634;28;20186;-77
2023/12/20 00:44:07;;;;;;;0.60;0.50;;;;;;;;;;5053855;28;20654;-77
2023/12/20 00:46:34;;;;;;;0.33;0.27;;;;;;;;;;5053408;28;20198;-78
2023/12/20 00:49:00;;;;;;;1.03;0.50;;;;;;;;;;5054441;28;20522;-77
2023/12/20 00:55:26;;;;;;;0.30;0.20;;;;;;;;;;5054401;28;20157;-77
2023/12/20 01:01:27;;;;;;;1.13;0.50;;;;;;;;;;5073952;28;20185;-78
2023/12/20 01:07:53;;;;;;;0.80;0.40;;;;;;;;;;5073583;28;20158;-77
2023/12/20 01:49:14;;;;;;;3.20;0.93;;;;;;;;;;5054148;28;20209;-78
2023/12/20 01:51:41;;;;;;;5.07;1.37;;;;;;;;;;5072165;28;20220;-77
2023/12/20 01:54:08;;;;;;;5.47;1.20;;;;;;;;;;5071563;28;20186;-77
2023/12/20 02:00:27;;;;;;;5.83;1.30;;;;;;;;;;5058746;28;20236;-76
2023/12/20 02:10:59;;;;;;;5.87;0.93;;;;;;;;;;5053025;28;20190;-77
2023/12/20 02:13:26;;;;;;;6.50;1.37;;;;;;;;;;5052899;28;20211;-76
2023/12/20 02:15:54;;;;;;;3.43;1.40;;;;;;;;;;5034623;28;20187;-77
2023/12/20 02:18:21;;;;;;;6.13;1.10;;;;;;;;;;5051656;28;20190;-75
2023/12/20 02:24:47;;;;;;;6.87;1.57;;;;;;;;;;5057223;28;20506;-75
2023/12/20 02:30:50;;;;;;;4.73;1.47;;;;;;;;;;5056578;28;20229;-75
2023/12/20 02:37:17;;;;;;;4.10;1.40;;;;;;;;;;5057058;28;20165;-76
2023/12/20 02:39:44;;;;;;;5.60;1.20;;;;;;;;;;5038469;28;20577;-76
2023/12/20 02:46:04;;;;;;;8.73;1.57;;;;;;;;;;5056689;28;20193;-76
2023/12/20 02:48:31;;;;;;;5.63;1.37;;;;;;;;;;5039174;28;20503;-76
2023/12/20 02:50:58;;;;;;;4.00;1.17;;;;;;;;;;5039231;28;20203;-74
2023/12/20 02:56:36;;;;;;;6.27;1.23;;;;;;;;;;5056439;28;20674;-75
2023/12/20 03:03:08;;;;;;;5.67;1.40;;;;;;;;;;5059944;28;20237;-75
2023/12/20 03:05:35;;;;;;;7.83;1.30;;;;;;;;;;5038212;28;20618;-75
2023/12/20 03:08:19;;;;;;;5.83;1.40;;;;;;;;;;5051604;28;20162;-75
2023/12/20 03:18:44;;;;;;;8.87;1.80;;;;;;;;;;5075743;28;20220;-77
2023/12/20 03:21:29;;;;;;;8.80;1.53;;;;;;;;;;5040795;28;20224;-76
2023/12/20 03:23:56;;;;;;;7.00;1.43;;;;;;;;;;5076102;28;20182;-76
2023/12/20 03:26:22;;;;;;;6.30;1.20;;;;;;;;;;5057804;28;20192;-77
2023/12/20 03:32:49;;;;;;;7.30;1.43;;;;;;;;;;5075395;28;20189;-76
2023/12/20 03:35:16;;;;;;;10.17;1.50;;;;;;;;;;5074828;28;20185;-76
2023/12/20 03:37:43;;;;;;;10.67;1.40;;;;;;;;;;5075243;28;20184;-76
2023/12/20 03:44:09;;;;;;;9.87;2.07;;;;;;;;;;5075769;28;20655;-76
2023/12/20 03:46:36;;;;;;;6.23;1.43;;;;;;;;;;5056903;28;20178;-75
2023/12/20 03:53:20;;;;;;;7.03;1.60;;;;;;;;;;5075061;28;20158;-76
2023/12/20 03:55:47;;;;;;;5.37;1.47;;;;;;;;;;5058376;28;20640;-76
2023/12/20 03:58:13;;;;;;;13.47;1.70;;;;;;;;;;5076018;28;20185;-76
2023/12/20 04:01:02;;;;;;;7.43;1.60;;;;;;;;;;5055169;28;20178;-76
2023/12/20 04:03:46;;;;;;;8.33;1.40;;;;;;;;;;5038961;28;20642;-76
2023/12/20 04:09:29;;;;;;;8.47;1.90;;;;;;;;;;5055192;28;20250;-76
2023/12/20 04:11:55;;;;;;;7.57;1.50;;;;;;;;;;5054905;28;20199;-76
2023/12/20 04:14:33;;;;;;;4.97;1.17;;;;;;;;;;5036701;28;20320;-79
2023/12/20 04:17:00;;;;;;;5.27;1.33;;;;;;;;;;5054127;28;20183;-77
2023/12/20 04:23:26;;;;;;;9.00;1.90;;;;;;;;;;5024654;28;20593;-81
2023/12/20 04:25:54;;;;;;;6.90;1.53;;;;;;;;;;5007777;28;20195;-84
2023/12/20 04:28:22;;;;;;;6.23;1.63;;;;;;;;;;5000428;28;20341;-79
2023/12/20 04:30:49;;;;;;;6.03;1.60;;;;;;;;;;5042849;28;20222;-76
2023/12/20 04:33:15;;;;;;;6.60;1.33;;;;;;;;;;5011081;28;20829;-79
2023/12/20 04:35:42;;;;;;;7.23;1.80;;;;;;;;;;5045955;28;20183;-80
2023/12/20 04:38:09;;;;;;;5.83;1.80;;;;;;;;;;5044505;28;20269;-81
2023/12/20 04:40:36;;;;;;;9.70;2.83;;;;;;;;;;5041149;28;20666;-80
2023/12/20 04:43:03;;;;;;;8.30;1.83;;;;;;;;;;5025256;28;20265;-79
2023/12/20 04:45:29;;;;;;;9.60;1.83;;;;;;;;;;5036181;28;20198;-78
2023/12/20 04:47:56;;;;;;;7.77;1.77;;;;;;;;;;5010736;28;20425;-72
2023/12/20 04:50:23;;;;;;;10.40;2.07;;;;;;;;;;5065168;28;20213;-85
2023/12/20 04:52:50;;;;;;;8.77;1.67;;;;;;;;;;5043345;28;20281;-77
2023/12/20 04:55:16;;;;;;;6.80;1.80;;;;;;;;;;5010418;28;20661;-80
2023/12/20 04:57:43;;;;;;;6.50;1.40;;;;;;;;;;5027473;28;20199;-76
2023/12/20 05:00:10;;;;;;;6.83;1.50;;;;;;;;;;5045335;28;20191;-82
2023/12/20 05:02:37;;;;;;;8.13;1.40;;;;;;;;;;5057223;28;20276;-80
2023/12/20 05:05:04;;;;;;;3.83;1.30;;;;;;;;;;5047156;28;20222;-79
2023/12/20 05:07:31;;;;;;;4.87;1.40;;;;;;;;;;5065102;28;20186;-79
2023/12/20 05:09:58;;;;;;;9.20;2.23;;;;;;;;;;5047329;28;20200;-77
2023/12/20 05:12:25;;;;;;;10.63;1.80;;;;;;;;;;5064774;28;20224;-76
2023/12/20 05:14:52;;;;;;;6.07;1.50;;;;;;;;;;5044775;28;20269;-75
2023/12/20 05:17:20;;;;;;;5.70;1.27;;;;;;;;;;5066969;28;20186;-75
2023/12/20 05:19:48;;;;;;;9.00;1.77;;;;;;;;;;5044116;28;20450;-75
2023/12/20 05:22:15;;;;;;;7.13;1.30;;;;;;;;;;5015661;28;20231;-80
2023/12/20 05:24:42;;;;;;;9.23;1.80;;;;;;;;;;5044880;28;20281;-79
2023/12/20 05:27:26;;;;;;;6.13;1.47;;;;;;;;;;5064857;28;20177;-79
2023/12/20 05:29:53;;;;;;;5.83;1.50;;;;;;;;;;5066850;28;20189;-77
2023/12/20 05:32:19;;;;;;;9.33;1.83;;;;;;;;;;5084806;28;20818;-84
2023/12/20 05:34:46;;;;;;;5.10;1.50;;;;;;;;;;5066035;28;20813;-82
2023/12/20 05:37:13;;;;;;;6.77;1.80;;;;;;;;;;5084914;28;20185;-79
2023/12/20 05:39:39;;;;;;;7.80;1.77;;;;;;;;;;5084628;28;20510;-83
2023/12/20 05:42:06;;;;;;;8.50;1.73;;;;;;;;;;5048600;28;20205;-81
2023/12/20 05:44:33;;;;;;;11.80;1.80;;;;;;;;;;5026465;28;20242;-82
2023/12/20 05:46:59;;;;;;;9.20;1.90;;;;;;;;;;5054170;28;20187;-75
2023/12/20 05:49:26;;;;;;;9.30;2.73;;;;;;;;;;5046221;28;20420;-76
2023/12/20 05:51:53;;;;;;;8.47;1.80;;;;;;;;;;5066339;28;20467;-76
2023/12/20 05:54:21;;;;;;;7.13;1.93;;;;;;;;;;5084480;28;20874;-74
2023/12/20 05:56:48;;;;;;;7.70;1.90;;;;;;;;;;5082985;28;20204;-75
2023/12/20 05:59:14;;;;;;;7.93;2.13;;;;;;;;;;5074391;28;20975;-75
2023/12/20 06:01:41;;;;;;;10.70;3.13;;;;;;;;;;5078314;28;20480;-76
2023/12/20 06:04:08;;;;;;;9.17;3.40;;;;;;;;;;5062572;28;20424;-84
2023/12/20 06:06:39;;;;;;;11.40;4.03;;;;;;;;;;5030015;28;20439;-78
2023/12/20 06:09:07;;;;;;;11.53;4.63;;;;;;;;;;5029293;28;20217;-83
2023/12/20 06:11:33;;;;;;;10.07;3.87;;;;;;;;;;5029306;28;20468;-79
2023/12/20 06:14:00;;;;;;;10.10;3.07;;;;;;;;;;5063367;28;20425;-79
2023/12/20 06:16:27;;;;;;;5.87;2.00;;;;;;;;;;5028535;28;20427;-80
2023/12/20 06:18:54;;;;;;;10.43;2.57;;;;;;;;;;5061538;28;20977;-81
2023/12/20 06:21:21;;;;;;;11.93;2.60;;;;;;;;;;5051600;28;20448;-73
2023/12/20 06:23:48;;;;;;;11.17;2.87;;;;;;;;;;5063555;28;20528;-77
2023/12/20 06:26:14;;;;;;;7.60;2.40;;;;;;;;;;5046020;28;20439;-80
2023/12/20 06:28:41;;;;;;;9.23;2.90;;;;;;;;;;5028917;28;20202;-77
2023/12/20 06:31:08;;;;;;;10.43;2.83;;;;;;;;;;5057300;28;20314;-73
2023/12/20 06:33:41;;;;;;;4.03;2.27;;;;;;;;;;5045791;28;21065;-78
2023/12/20 06:40:02;;;;;;;12.07;4.17;;;;;;;;;;5064349;28;20414;-78
2023/12/20 06:42:29;;;;;;;9.70;3.83;;;;;;;;;;5046496;28;20420;-78
2023/12/20 06:45:00;;;;;;;11.50;4.30;;;;;;;;;;5064297;28;20432;-75
2023/12/20 06:47:28;;;;;;;8.50;3.50;;;;;;;;;;5046600;28;20538;-75
2023/12/20 06:50:00;;;;;;;7.90;3.13;;;;;;;;;;5044486;28;20750;-78
2023/12/20 06:52:27;;;;;;;10.73;3.47;;;;;;;;;;5042130;28;20469;-77
2023/12/20 06:58:54;;;;;;;8.47;3.03;;;;;;;;;;5074707;28;20418;-77
2023/12/20 07:01:21;;;;;;;14.07;4.40;;;;;;;;;;5065182;28;20432;-77
2023/12/20 07:03:48;;;;;;;10.00;4.13;;;;;;;;;;5050858;28;20425;-76
2023/12/20 07:06:16;;;;;;;10.33;4.00;;;;;;;;;;5031484;28;20450;-75
2023/12/20 07:08:44;;;;;;;12.90;4.07;;;;;;;;;;5074029;28;20436;-78
2023/12/20 07:11:11;;;;;;;9.73;3.30;;;;;;;;;;5066606;28;20566;-74
2023/12/20 07:14:06;;;;;;;11.57;3.70;;;;;;;;;;5049316;28;20436;-78
2023/12/20 07:16:33;;;;;;;6.87;2.23;;;;;;;;;;5067172;28;20432;-77
2023/12/20 07:18:59;;;;;;;8.73;2.07;;;;;;;;;;5064886;28;20538;-83
2023/12/20 07:21:26;;;;;;;9.70;2.50;;;;;;;;;;5074544;28;20543;-74
2023/12/20 07:24:11;;;;;;;10.13;2.30;;;;;;;;;;5053744;28;20416;-73
2023/12/20 07:26:38;;;;;;;9.20;2.50;;;;;;;;;;5060856;28;20439;-74
2023/12/20 07:32:41;;;;;;;12.27;4.03;;;;;;;;;;5066479;28;20528;-74
2023/12/20 07:35:08;;;;;;;10.93;3.00;;;;;;;;;;5064574;28;20489;-75
2023/12/20 07:37:48;;;;;;;13.70;3.70;;;;;;;;;;5062910;28;22016;-75
2023/12/20 07:40:17;;;;;;;9.87;3.67;;;;;;;;;;5046609;28;20417;-72
2023/12/20 07:42:44;;;;;;;10.00;2.80;;;;;;;;;;5057742;28;20432;-73
2023/12/20 07:45:11;;;;;;;9.43;3.20;;;;;;;;;;5064965;28;20818;-73
2023/12/20 07:47:38;;;;;;;9.43;2.97;;;;;;;;;;5032052;28;20453;-76
2023/12/20 07:53:16;;;;;;;5.40;1.93;;;;;;;;;;5070401;28;20447;-74
2023/12/20 07:55:43;;;;;;;9.73;2.87;;;;;;;;;;5066136;28;20430;-76
2023/12/20 07:58:10;;;;;;;7.43;2.33;;;;;;;;;;5066282;28;20447;-76
2023/12/20 08:00:37;;;;;;;8.77;2.43;;;;;;;;;;5066389;28;20451;-77
2023/12/20 08:03:03;;;;;;;10.53;2.30;;;;;;;;;;5064100;28;20507;-76
2023/12/20 08:05:30;;;;;;;8.33;2.37;;;;;;;;;;5035008;28;20436;-78
2023/12/20 08:08:25;;;;;;;6.97;2.67;;;;;;;;;;5056755;28;20440;-77
2023/12/20 08:10:53;;;;;;;6.60;2.50;;;;;;;;;;5045165;28;20432;-77
2023/12/20 08:13:25;;;;;;;6.17;2.10;;;;;;;;;;5047765;28;20461;-76
2023/12/20 08:15:53;;;;;;;7.07;1.83;;;;;;;;;;5028144;28;20199;-74
2023/12/20 08:18:22;;;;;;;4.83;1.43;;;;;;;;;;5074825;28;20444;-77
2023/12/20 08:20:52;;;;;;;5.37;1.70;;;;;;;;;;5065356;28;20588;-75
2023/12/20 08:23:20;;;;;;;8.73;2.27;;;;;;;;;;5064546;28;20538;-78
2023/12/20 08:29:58;;;;;;;5.70;1.97;;;;;;;;;;5085454;28;20184;-76
2023/12/20 08:32:26;;;;;;;6.20;1.73;;;;;;;;;;5060935;28;20578;-75
2023/12/20 08:34:54;;;;;;;4.80;1.77;;;;;;;;;;5085682;28;20926;-76
2023/12/20 08:37:20;;;;;;;5.70;1.53;;;;;;;;;;5056024;28;20435;-80
2023/12/20 08:40:05;;;;;;;5.60;2.40;;;;;;;;;;5051950;28;20385;-77
2023/12/20 08:42:33;;;;;;;7.67;2.33;;;;;;;;;;5049541;28;20424;-79
2023/12/20 08:45:25;;;;;;;5.83;1.83;;;;;;;;;;5063429;28;20442;-77
2023/12/20 08:47:52;;;;;;;5.70;2.03;;;;;;;;;;5072159;28;20961;-82
2023/12/20 08:58:13;;;;;;;6.43;1.73;;;;;;;;;;5071345;28;20238;-78
2023/12/20 09:00:40;;;;;;;5.07;2.13;;;;;;;;;;5039310;28;20978;-77
2023/12/20 09:03:08;;;;;;;5.97;1.33;;;;;;;;;;5013532;28;20245;-77
2023/12/20 09:16:21;;;;;;;7.73;1.70;;;;;;;;;;5024722;28;20178;-75
2023/12/20 09:18:48;;;;;;;6.33;1.80;;;;;;;;;;5031564;28;20533;-75
2023/12/20 09:25:17;;;;;;;6.53;1.40;;;;;;;;;;5044983;28;20205;-78
2023/12/20 09:27:45;;;;;;;4.03;1.20;;;;;;;;;;5010321;28;20187;-77
2023/12/20 09:30:14;;;;;;;5.93;1.30;;;;;;;;;;5044403;28;20542;-79
2023/12/20 09:32:57;;;;;;;5.90;2.00;;;;;;;;;;5024296;28;20225;-83
2023/12/20 09:35:42;;;;;;;10.00;2.33;;;;;;;;;;5029726;28;20521;-80
2023/12/20 09:38:10;;;;;;;5.00;1.70;;;;;;;;;;5011656;28;20199;-80
2023/12/20 09:40:38;;;;;;;5.33;2.23;;;;;;;;;;5059121;28;20202;-78
2023/12/20 09:43:15;;;;;;;6.20;2.07;;;;;;;;;;5010443;28;20222;-74
2023/12/20 09:46:07;;;;;;;6.53;2.43;;;;;;;;;;5029350;28;20217;-74
2023/12/20 09:48:35;;;;;;;8.73;2.20;;;;;;;;;;4994860;28;20472;-80
2023/12/20 09:51:22;;;;;;;9.87;2.63;;;;;;;;;;5032316;28;20175;-75
2023/12/20 09:57:49;;;;;;;5.60;2.43;;;;;;;;;;5053617;28;20185;-75
2023/12/20 10:00:19;;;;;;;6.40;1.73;;;;;;;;;;5054642;28;20193;-75
2023/12/20 10:02:59;;;;;;;6.47;2.67;;;;;;;;;;5067409;28;20230;-75
2023/12/20 10:05:30;;;;;;;7.57;2.30;;;;;;;;;;5093504;28;20177;-75
2023/12/20 10:07:57;;;;;;;9.47;2.10;;;;;;;;;;5058752;28;20428;-75
2023/12/20 10:10:25;;;;;;;5.97;1.30;;;;;;;;;;5093547;28;20185;-75
2023/12/20 10:13:09;;;;;;;3.17;1.27;;;;;;;;;;5078447;28;20447;-75
2023/12/20 10:15:37;;;;;;;6.57;1.30;;;;;;;;;;5094165;28;20177;-75
2023/12/20 10:18:05;;;;;;;6.57;1.80;;;;;;;;;;5058867;28;20260;-75
2023/12/20 10:20:33;;;;;;;5.30;1.60;;;;;;;;;;5075149;28;20451;-75
2023/12/20 10:23:00;;;;;;;5.80;1.87;;;;;;;;;;5075839;28;20219;-75
2023/12/20 10:25:27;;;;;;;9.87;2.93;;;;;;;;;;5093520;28;20825;-75
2023/12/20 10:28:14;;;;;;;8.93;2.20;;;;;;;;;;5076578;28;20173;-75
2023/12/20 10:30:41;;;;;;;7.50;2.17;;;;;;;;;;5093251;28;20235;-75
2023/12/20 10:33:09;;;;;;;8.20;2.00;;;;;;;;;;5074650;28;20197;-75
2023/12/20 10:35:38;;;;;;;8.27;2.20;;;;;;;;;;5093328;28;20185;-75
2023/12/20 10:38:11;;;;;;;7.13;1.57;;;;;;;;;;5076899;28;20422;-75
2023/12/20 10:40:38;;;;;;;5.97;2.77;;;;;;;;;;5075928;28;20427;-75
2023/12/20 10:43:06;;;;;;;4.60;1.73;;;;;;;;;;5079880;28;20691;-75
2023/12/20 10:45:33;;;;;;;8.27;2.17;;;;;;;;;;5095775;28;20276;-73
2023/12/20 10:48:01;;;;;;;5.17;1.67;;;;;;;;;;5096846;28;20196;-75
2023/12/20 10:50:29;;;;;;;6.07;2.67;;;;;;;;;;5079723;28;20613;-75
2023/12/20 10:56:57;;;;;;;5.83;2.33;;;;;;;;;;5097349;28;20726;-76
2023/12/20 10:59:36;;;;;;;4.50;2.37;;;;;;;;;;5095778;28;20509;-76
2023/12/20 11:02:05;;;;;;;5.67;2.57;;;;;;;;;;5061784;28;20965;-70
2023/12/20 11:04:45;;;;;;;4.67;1.90;;;;;;;;;;5078832;28;20575;-76
2023/12/20 11:11:13;;;;;;;8.10;3.40;;;;;;;;;;5097099;28;20235;-76
2023/12/20 11:13:42;;;;;;;8.67;4.07;;;;;;;;;;5062115;28;20200;-75
2023/12/20 11:16:09;;;;;;;6.97;2.40;;;;;;;;;;5078537;28;20264;-75
2023/12/20 11:18:36;;;;;;;7.93;3.13;;;;;;;;;;5078277;28;20190;-76
2023/12/20 11:25:09;;;;;;;6.87;3.23;;;;;;;;;;5096793;28;20152;-76
2023/12/20 11:27:37;;;;;;;7.97;3.10;;;;;;;;;;5077773;28;20188;-74
2023/12/20 11:30:07;;;;;;;4.93;2.30;;;;;;;;;;5078277;28;20193;-76
2023/12/20 11:32:37;;;;;;;8.33;3.23;;;;;;;;;;5078803;28;20194;-76
2023/12/20 11:35:08;;;;;;;13.13;3.83;;;;;;;;;;5079157;28;20227;-77
2023/12/20 11:37:35;;;;;;;12.07;4.07;;;;;;;;;;5096755;28;20415;-76
2023/12/20 11:40:09;;;;;;;16.07;4.70;;;;;;;;;;5078714;28;20181;-75
2023/12/20 11:42:38;;;;;;;8.03;3.40;;;;;;;;;;5095900;28;20181;-76
2023/12/20 11:45:08;;;;;;;8.00;3.67;;;;;;;;;;5094929;28;20197;-76
2023/12/20 11:51:40;;;;;;;7.53;3.13;;;;;;;;;;5096085;28;20149;-75
2023/12/20 11:54:08;;;;;;;5.37;2.30;;;;;;;;;;5095185;28;20185;-76
2023/12/20 11:56:36;;;;;;;3.57;1.87;;;;;;;;;;5095662;28;20177;-76
2023/12/20 12:03:03;;;;;;;5.73;2.70;;;;;;;;;;5096080;28;20590;-75
2023/12/20 12:05:31;;;;;;;8.70;3.83;;;;;;;;;;5078038;28;20644;-75
2023/12/20 12:07:58;;;;;;;7.37;2.60;;;;;;;;;;5095965;28;20189;-76
2023/12/20 12:10:25;;;;;;;4.17;2.30;;;;;;;;;;5096390;28;20181;-76
2023/12/20 12:20:03;;;;;;;5.37;2.87;;;;;;;;;;5095982;28;20208;-75
2023/12/20 12:22:30;;;;;;;3.50;1.80;;;;;;;;;;5096324;28;20194;-74
2023/12/20 12:24:58;;;;;;;4.83;2.30;;;;;;;;;;5095561;28;20188;-75
2023/12/20 12:34:31;;;;;;;4.90;1.20;;;;;;;;;;5075218;28;20169;-76
2023/12/20 12:36:58;;;;;;;4.53;2.27;;;;;;;;;;5074157;28;20192;-75
2023/12/20 12:39:25;;;;;;;4.10;1.63;;;;;;;;;;5073489;28;20185;-75
2023/12/20 12:41:52;;;;;;;4.80;2.53;;;;;;;;;;5073297;28;20695;-75
2023/12/20 12:44:36;;;;;;;5.67;2.30;;;;;;;;;;5079401;28;20758;-75
2023/12/20 12:47:04;;;;;;;3.43;1.80;;;;;;;;;;5076565;28;20182;-75
2023/12/20 12:49:30;;;;;;;2.57;1.20;;;;;;;;;;5077070;28;20185;-75
2023/12/20 12:51:58;;;;;;;2.13;1.30;;;;;;;;;;5060601;28;20185;-75
2023/12/20 12:54:25;;;;;;;3.73;1.50;;;;;;;;;;5095152;28;20272;-75
2023/12/20 12:56:53;;;;;;;2.60;1.30;;;;;;;;;;5097292;28;20196;-75
2023/12/20 12:59:20;;;;;;;3.50;1.57;;;;;;;;;;5094916;28;20189;-75
2023/12/20 13:01:47;;;;;;;3.60;1.73;;;;;;;;;;5086286;28;20231;-75
2023/12/20 13:04:14;;;;;;;2.37;1.57;;;;;;;;;;5054280;28;20653;-75
2023/12/20 13:06:42;;;;;;;3.47;1.70;;;;;;;;;;5053582;28;20241;-74
2023/12/20 13:09:09;;;;;;;2.90;1.87;;;;;;;;;;5054487;28;20428;-74
2023/12/20 13:11:43;;;;;;;0.93;0.80;;;;;;;;;;5053034;28;20262;-75
2023/12/20 13:14:15;;;;;;;3.87;1.40;;;;;;;;;;5052744;28;20210;-75
2023/12/20 13:16:42;;;;;;;2.93;1.40;;;;;;;;;;5054382;28;20278;-75
2023/12/20 13:19:09;;;;;;;1.33;0.70;;;;;;;;;;5054663;28;20611;-76
2023/12/20 13:25:31;;;;;;;0.70;0.57;;;;;;;;;;5053592;28;20158;-75
2023/12/20 13:35:58;;;;;;;2.20;1.20;;;;;;;;;;5034209;28;20159;-75
2023/12/20 13:38:25;;;;;;;1.43;1.10;;;;;;;;;;5001120;28;20434;-75
2023/12/20 13:41:18;;;;;;;2.60;1.50;;;;;;;;;;5028839;28;20182;-75
2023/12/20 13:43:45;;;;;;;1.93;1.50;;;;;;;;;;5053029;28;20496;-71
2023/12/20 13:46:13;;;;;;;4.40;2.00;;;;;;;;;;5054556;28;20193;-75
2023/12/20 13:52:42;;;;;;;2.53;1.43;;;;;;;;;;5053795;28;20213;-75
2023/12/20 13:55:09;;;;;;;1.80;1.30;;;;;;;;;;5036568;28;20594;-74
2023/12/20 13:57:37;;;;;;;1.83;1.33;;;;;;;;;;5034600;28;20487;-75
2023/12/20 14:00:21;;;;;;;2.20;1.07;;;;;;;;;;5038287;28;20240;-75
2023/12/20 14:02:49;;;;;;;1.20;1.00;;;;;;;;;;5035076;28;21003;-75
2023/12/20 14:05:19;;;;;;;2.03;0.70;;;;;;;;;;5054056;28;20448;-75
2023/12/20 14:07:50;;;;;;;1.97;1.10;;;;;;;;;;5037157;28;20402;-76
2023/12/20 14:10:17;;;;;;;2.53;1.40;;;;;;;;;;5036777;28;20214;-75
2023/12/20 14:12:44;;;;;;;1.73;1.07;;;;;;;;;;5052368;28;20203;-75
2023/12/20 14:19:11;;;;;;;2.83;1.30;;;;;;;;;;5057288;28;20511;-75
2023/12/20 14:21:38;;;;;;;2.33;1.60;;;;;;;;;;5057079;28;20440;-76
2023/12/20 14:27:57;;;;;;;5.00;2.27;;;;;;;;;;5056379;28;20220;-76
2023/12/20 14:30:49;;;;;;;5.07;2.60;;;;;;;;;;5056288;28;20244;-75
2023/12/20 14:33:19;;;;;;;3.47;2.40;;;;;;;;;;5035375;28;20225;-75
2023/12/20 14:35:46;;;;;;;4.83;2.17;;;;;;;;;;5053312;28;20285;-77
2023/12/20 14:38:14;;;;;;;3.80;2.83;;;;;;;;;;5057309;28;20187;-76
2023/12/20 14:40:41;;;;;;;9.37;4.70;;;;;;;;;;5057525;28;20237;-75
2023/12/20 14:43:09;;;;;;;4.90;3.73;;;;;;;;;;5039242;28;20187;-75
2023/12/20 14:49:14;;;;;;;4.97;2.63;;;;;;;;;;5052548;28;20151;-77
2023/12/20 14:55:40;;;;;;;11.17;4.80;;;;;;;;;;5056799;28;20169;-75
2023/12/20 14:58:07;;;;;;;7.73;3.47;;;;;;;;;;5057099;28;20453;-75
2023/12/20 15:00:52;;;;;;;11.03;4.43;;;;;;;;;;5040208;28;20170;-75
2023/12/20 15:03:18;;;;;;;5.10;3.03;;;;;;;;;;5053656;28;20228;-75
2023/12/20 15:05:47;;;;;;;7.67;3.53;;;;;;;;;;5075525;28;20657;-76
2023/12/20 15:08:15;;;;;;;6.27;3.63;;;;;;;;;;5066222;28;20473;-75
2023/12/20 15:10:42;;;;;;;8.17;3.60;;;;;;;;;;5042665;28;20186;-76
2023/12/20 15:13:09;;;;;;;4.00;2.80;;;;;;;;;;5058982;28;20205;-75
2023/12/20 15:15:37;;;;;;;5.40;2.73;;;;;;;;;;5058080;28;20182;-76
2023/12/20 15:18:03;;;;;;;5.73;3.63;;;;;;;;;;5076040;28;20197;-75
2023/12/20 15:27:57;;;;;;;6.40;3.20;;;;;;;;;;5075674;28;20284;-75
2023/12/20 15:30:24;;;;;;;7.73;3.50;;;;;;;;;;5058030;28;20182;-75
2023/12/20 15:36:48;;;;;;;6.30;3.43;;;;;;;;;;5075916;28;20252;-77
2023/12/20 15:39:14;;;;;;;3.97;3.03;;;;;;;;;;5075880;28;20194;-75
2023/12/20 15:45:40;;;;;;;6.47;2.90;;;;;;;;;;5075661;28;20268;-75
2023/12/20 15:48:08;;;;;;;5.20;3.20;;;;;;;;;;5074217;28;20190;-75
2023/12/20 15:50:35;;;;;;;4.07;2.30;;;;;;;;;;5040575;28;20178;-77
2023/12/20 15:57:01;;;;;;;3.13;1.53;;;;;;;;;;5075825;28;20153;-76
2023/12/20 15:59:28;;;;;;;4.60;2.20;;;;;;;;;;5041398;28;20185;-75
2023/12/20 16:02:12;;;;;;;3.30;2.07;;;;;;;;;;5075675;28;20236;-75
2023/12/20 16:04:54;;;;;;;4.23;1.53;;;;;;;;;;5056610;28;20251;-76
2023/12/20 16:07:21;;;;;;;3.13;1.93;;;;;;;;;;5041674;28;20194;-75
2023/12/20 16:13:50;;;;;;;3.07;1.33;;;;;;;;;;5075685;28;20933;-75
2023/12/20 16:16:17;;;;;;;7.27;3.37;;;;;;;;;;5058354;28;20557;-76
2023/12/20 16:18:44;;;;;;;5.23;2.60;;;;;;;;;;5057576;28;20416;-77
2023/12/20 16:21:11;;;;;;;3.43;1.97;;;;;;;;;;5056111;28;20471;-75
2023/12/20 16:23:37;;;;;;;2.90;1.40;;;;;;;;;;4997554;28;20976;-78
2023/12/20 16:26:05;;;;;;;3.70;2.07;;;;;;;;;;5047729;28;20428;-76
2023/12/20 16:28:31;;;;;;;3.83;2.37;;;;;;;;;;5047006;28;20829;-79
2023/12/20 16:30:58;;;;;;;2.13;1.30;;;;;;;;;;5047781;28;20467;-80
2023/12/20 16:33:25;;;;;;;3.63;1.90;;;;;;;;;;5065976;28;20464;-77
2023/12/20 16:35:57;;;;;;;4.60;1.93;;;;;;;;;;5050644;28;20431;-77
2023/12/20 16:38:24;;;;;;;4.47;2.27;;;;;;;;;;5061446;28;20479;-78
2023/12/20 16:44:44;;;;;;;4.27;2.00;;;;;;;;;;5065494;28;20465;-79
2023/12/20 16:47:11;;;;;;;4.17;1.97;;;;;;;;;;5064462;28;20424;-80
2023/12/20 16:49:38;;;;;;;3.50;2.17;;;;;;;;;;5047155;28;20436;-77
2023/12/20 16:59:17;;;;;;;1.77;1.13;;;;;;;;;;5054933;28;20977;-75
2023/12/20 17:02:03;;;;;;;6.03;2.23;;;;;;;;;;5036047;28;20439;-73
2023/12/20 17:04:32;;;;;;;4.23;1.73;;;;;;;;;;5080354;28;20444;-75
2023/12/20 17:07:05;;;;;;;3.47;1.80;;;;;;;;;;5028784;28;20436;-78
2023/12/20 17:09:32;;;;;;;6.87;2.57;;;;;;;;;;5052728;28;20472;-75
2023/12/20 17:11:59;;;;;;;6.97;2.00;;;;;;;;;;5046719;28;20248;-76
2023/12/20 17:14:26;;;;;;;2.30;1.10;;;;;;;;;;5041107;28;20472;-79
2023/12/20 17:16:53;;;;;;;5.13;1.90;;;;;;;;;;5044485;28;20436;-77
2023/12/20 17:19:20;;;;;;;2.83;1.40;;;;;;;;;;5026833;28;20265;-78
2023/12/20 17:22:30;;;;;;;2.77;1.30;;;;;;;;;;5028416;28;20791;-77
2023/12/20 17:31:58;;;;;;;3.63;1.30;;;;;;;;;;5032715;28;20927;-79
2023/12/20 17:34:30;;;;;;;3.60;1.40;;;;;;;;;;5053947;28;20487;-79
2023/12/20 17:36:57;;;;;;;5.97;1.90;;;;;;;;;;5035110;28;20186;-79
2023/12/20 17:43:23;;;;;;;6.23;2.50;;;;;;;;;;5053562;28;20771;-77
2023/12/20 17:45:50;;;;;;;5.83;2.73;;;;;;;;;;5091755;28;20268;-78
2023/12/20 17:48:17;;;;;;;3.53;1.30;;;;;;;;;;5075959;28;20419;-78
2023/12/20 17:50:47;;;;;;;6.97;2.10;;;;;;;;;;5075150;28;20217;-77
2023/12/20 17:53:14;;;;;;;6.07;1.80;;;;;;;;;;5039796;28;20509;-76
2023/12/20 17:59:34;;;;;;;4.87;1.60;;;;;;;;;;5072901;28;20253;-78
2023/12/20 18:02:02;;;;;;;3.50;1.70;;;;;;;;;;5055124;28;20467;-77
2023/12/20 18:04:29;;;;;;;2.60;1.20;;;;;;;;;;5072468;28;20436;-77
2023/12/20 18:06:55;;;;;;;4.67;1.70;;;;;;;;;;5055422;28;20468;-77
2023/12/20 18:09:22;;;;;;;4.33;1.60;;;;;;;;;;5056532;28;20759;-77
2023/12/20 18:11:49;;;;;;;8.17;1.93;;;;;;;;;;5055902;28;20428;-78
2023/12/20 18:14:17;;;;;;;4.57;1.90;;;;;;;;;;5055845;28;20846;-76
2023/12/20 18:16:44;;;;;;;3.83;1.50;;;;;;;;;;5056239;28;20438;-79
2023/12/20 18:19:11;;;;;;;2.27;1.10;;;;;;;;;;5074050;28;20470;-78
2023/12/20 18:21:38;;;;;;;5.87;1.70;;;;;;;;;;5055753;28;20432;-77
2023/12/20 18:27:58;;;;;;;2.07;1.20;;;;;;;;;;5072790;28;20629;-78
2023/12/20 18:34:49;;;;;;;3.30;1.13;;;;;;;;;;5073644;28;20465;-78
2023/12/20 18:37:16;;;;;;;3.10;1.17;;;;;;;;;;5071230;28;20421;-78
2023/12/20 18:43:43;;;;;;;2.63;1.63;;;;;;;;;;5072985;28;20779;-77
2023/12/20 18:46:09;;;;;;;2.27;1.30;;;;;;;;;;5041473;28;20428;-77
2023/12/20 18:48:40;;;;;;;1.60;0.80;;;;;;;;;;5093507;28;20419;-78
2023/12/20 18:51:07;;;;;;;2.43;1.23;;;;;;;;;;5075974;28;20763;-78
2023/12/20 18:53:34;;;;;;;2.07;1.30;;;;;;;;;;5025383;28;20476;-76
2023/12/20 18:56:02;;;;;;;1.20;0.93;;;;;;;;;;5061924;28;20438;-79
2023/12/20 18:58:31;;;;;;;1.50;1.00;;;;;;;;;;5063650;28;20482;-81
2023/12/20 19:01:00;;;;;;;2.03;1.00;;;;;;;;;;5045329;28;21019;-77
2023/12/20 19:03:27;;;;;;;1.40;0.87;;;;;;;;;;5065099;28;20464;-77
2023/12/20 19:05:54;;;;;;;2.87;1.00;;;;;;;;;;5067635;28;20497;-79
2023/12/20 19:08:21;;;;;;;1.60;1.00;;;;;;;;;;5048482;28;20522;-78
2023/12/20 19:10:48;;;;;;;2.57;1.23;;;;;;;;;;5067584;28;20435;-78
2023/12/20 19:13:15;;;;;;;2.77;1.13;;;;;;;;;;5057846;28;20748;-78
2023/12/20 19:15:42;;;;;;;4.03;2.13;;;;;;;;;;5068667;28;20423;-76
2023/12/20 19:18:11;;;;;;;5.13;2.60;;;;;;;;;;5052617;28;20431;-73
2023/12/20 19:20:40;;;;;;;4.43;1.80;;;;;;;;;;5087458;28;20463;-75
2023/12/20 19:23:07;;;;;;;4.63;2.03;;;;;;;;;;5082844;28;20447;-74
2023/12/20 19:25:37;;;;;;;4.00;2.40;;;;;;;;;;5061982;28;20497;-75
2023/12/20 19:28:04;;;;;;;7.40;2.40;;;;;;;;;;5068102;28;20430;-78
2023/12/20 19:30:30;;;;;;;4.97;2.53;;;;;;;;;;5075930;28;20420;-73
2023/12/20 19:32:57;;;;;;;6.53;3.10;;;;;;;;;;5069090;28;20688;-75
2023/12/20 19:35:24;;;;;;;4.63;2.43;;;;;;;;;;5068586;28;20475;-73
2023/12/20 19:41:44;;;;;;;6.13;2.83;;;;;;;;;;5066032;28;20403;-72
2023/12/20 19:44:36;;;;;;;9.33;3.50;;;;;;;;;;5052139;28;20442;-73
2023/12/20 19:47:03;;;;;;;5.90;2.47;;;;;;;;;;5066446;28;20759;-71
2023/12/20 19:49:30;;;;;;;7.73;3.30;;;;;;;;;;5032006;28;20459;-72
2023/12/20 19:51:57;;;;;;;6.57;3.27;;;;;;;;;;5047455;28;20839;-75
2023/12/20 19:54:24;;;;;;;6.00;2.63;;;;;;;;;;5032021;28;20496;-75
2023/12/20 19:56:51;;;;;;;7.20;3.57;;;;;;;;;;5031324;28;20429;-74
2023/12/20 19:59:18;;;;;;;9.77;3.37;;;;;;;;;;5066562;28;20425;-76
2023/12/20 20:01:45;;;;;;;5.20;2.87;;;;;;;;;;5078265;28;20467;-72
2023/12/20 20:04:13;;;;;;;8.53;3.10;;;;;;;;;;5068723;28;20474;-75